NOZ971 EKCH-ENZV
Flight info
| Callsign | NOZ971 |
|---|---|
| Flight time | 1h 0m |
| Altitude | 32000 |
| Route | GOLGA DCT KOVIK DCT RIVEX |
| Aircraft | B738/M-SDE2E3GHILRWXY/LB1 |
Departure
| Time | 2026-05-04 19:05 |
|---|---|
| Airport | Copenhagen Kastrup Airport (EKCH) |
Arrival
| Time | 2026-05-04 20:06 |
|---|---|
| Airport | Stavanger Airport, Sola (ENZV) |
| Time | Latitude | Longitude | Altitude | Speed | Heading |
|---|---|---|---|---|---|
| 2026-05-04 18:22 | 55.62856 | 12.64257 | 23 ft | 0 kts | 101° |
| 2026-05-04 18:49 | 55.62856 | 12.64256 | 23 ft | 1 kts | 101° |
| 2026-05-04 18:49 | 55.62859 | 12.64230 | 23 ft | 3 kts | 101° |
| 2026-05-04 18:49 | 55.62862 | 12.64196 | 23 ft | 3 kts | 80° |
| 2026-05-04 18:50 | 55.62857 | 12.64163 | 23 ft | 3 kts | 70° |
| 2026-05-04 18:50 | 55.62849 | 12.64129 | 23 ft | 3 kts | 68° |
| 2026-05-04 18:50 | 55.62841 | 12.64097 | 24 ft | 3 kts | 65° |
| 2026-05-04 18:50 | 55.62833 | 12.64064 | 23 ft | 3 kts | 62° |
| 2026-05-04 18:51 | 55.62823 | 12.64033 | 23 ft | 3 kts | 58° |
| 2026-05-04 18:51 | 55.62812 | 12.64003 | 24 ft | 3 kts | 50° |
| 2026-05-04 18:51 | 55.62798 | 12.63979 | 23 ft | 3 kts | 33° |
| 2026-05-04 18:51 | 55.62784 | 12.63960 | 23 ft | 3 kts | 63° |
| 2026-05-04 18:52 | 55.62780 | 12.63930 | 23 ft | 3 kts | 103° |
| 2026-05-04 18:52 | 55.62786 | 12.63899 | 23 ft | 2 kts | 114° |
| 2026-05-04 18:52 | 55.62788 | 12.63891 | 23 ft | 0 kts | 115° |
| 2026-05-04 18:55 | 55.62786 | 12.63895 | 23 ft | 2 kts | 117° |
| 2026-05-04 18:56 | 55.62781 | 12.63908 | 23 ft | 0 kts | 133° |
| 2026-05-04 18:56 | 55.62770 | 12.63919 | 23 ft | 0 kts | 154° |
| 2026-05-04 18:56 | 55.62757 | 12.63922 | -2 ft | 7 kts | 179° |
| 2026-05-04 18:56 | 55.62700 | 12.63868 | 23 ft | 10 kts | 212° |
| 2026-05-04 18:57 | 55.62640 | 12.63896 | 24 ft | 10 kts | 131° |
| 2026-05-04 18:57 | 55.62602 | 12.63995 | 23 ft | 10 kts | 124° |
| 2026-05-04 18:57 | 55.62567 | 12.64093 | 25 ft | 9 kts | 122° |
| 2026-05-04 18:57 | 55.62532 | 12.64189 | 23 ft | 10 kts | 123° |
| 2026-05-04 18:58 | 55.62490 | 12.64313 | 23 ft | 13 kts | 118° |
| 2026-05-04 18:58 | 55.62434 | 12.64429 | 24 ft | 12 kts | 143° |
| 2026-05-04 18:58 | 55.62362 | 12.64436 | 23 ft | 4 kts | 194° |
| 2026-05-04 18:58 | 55.62358 | 12.64434 | 23 ft | 0 kts | 194° |
| 2026-05-04 19:00 | 55.62320 | 12.64416 | 24 ft | 9 kts | 195° |
| 2026-05-04 19:00 | 55.62218 | 12.64361 | 20 ft | 18 kts | 202° |
| 2026-05-04 19:00 | 55.62108 | 12.64269 | 25 ft | 17 kts | 206° |
| 2026-05-04 19:00 | 55.62024 | 12.64199 | 23 ft | 9 kts | 205° |
| 2026-05-04 19:01 | 55.61969 | 12.64152 | 27 ft | 9 kts | 206° |
| 2026-05-04 19:01 | 55.61919 | 12.64109 | 23 ft | 8 kts | 206° |
| 2026-05-04 19:01 | 55.61870 | 12.64074 | 23 ft | 8 kts | 192° |
| 2026-05-04 19:01 | 55.61819 | 12.64084 | 25 ft | 7 kts | 181° |
| 2026-05-04 19:02 | 55.61769 | 12.64079 | 23 ft | 7 kts | 177° |
| 2026-05-04 19:02 | 55.61762 | 12.64080 | 23 ft | 0 kts | 176° |
| 2026-05-04 19:04 | 55.61738 | 12.64082 | 27 ft | 6 kts | 176° |
| 2026-05-04 19:04 | 55.61692 | 12.64088 | 28 ft | 8 kts | 174° |
| 2026-05-04 19:04 | 55.61637 | 12.64080 | 26 ft | 8 kts | 204° |
| 2026-05-04 19:04 | 55.61591 | 12.64016 | 26 ft | 13 kts | 221° |
| 2026-05-04 19:05 | 55.61322 | 12.63599 | 30 ft | 90 kts | 221° |
| 2026-05-04 19:05 | 55.60680 | 12.62594 | 37 ft | 153 kts | 219° |
| 2026-05-04 19:05 | 55.59832 | 12.61257 | 554 ft | 171 kts | 226° |
| 2026-05-04 19:05 | 55.58903 | 12.59764 | 1258 ft | 186 kts | 224° |
| 2026-05-04 19:06 | 55.57896 | 12.58256 | 2051 ft | 198 kts | 223° |
| 2026-05-04 19:06 | 55.56775 | 12.56572 | 2304 ft | 225 kts | 226° |
| 2026-05-04 19:06 | 55.55983 | 12.54147 | 2678 ft | 240 kts | 263° |
| 2026-05-04 19:06 | 55.56134 | 12.51184 | 3337 ft | 248 kts | 281° |
| 2026-05-04 19:07 | 55.56444 | 12.48176 | 4297 ft | 249 kts | 279° |
| 2026-05-04 19:07 | 55.56740 | 12.45157 | 5261 ft | 251 kts | 282° |
| 2026-05-04 19:07 | 55.57571 | 12.42457 | 6158 ft | 257 kts | 315° |
| 2026-05-04 19:07 | 55.59137 | 12.40768 | 7072 ft | 263 kts | 328° |
| 2026-05-04 19:08 | 55.60742 | 12.39284 | 7880 ft | 267 kts | 328° |
| 2026-05-04 19:08 | 55.62407 | 12.37748 | 8707 ft | 271 kts | 328° |
| 2026-05-04 19:08 | 55.64115 | 12.36166 | 9611 ft | 274 kts | 328° |
| 2026-05-04 19:08 | 55.65782 | 12.34614 | 10346 ft | 280 kts | 328° |
| 2026-05-04 19:09 | 55.67575 | 12.32927 | 10574 ft | 305 kts | 328° |
| 2026-05-04 19:09 | 55.69508 | 12.31099 | 10887 ft | 324 kts | 328° |
| 2026-05-04 19:09 | 55.71527 | 12.29192 | 11527 ft | 332 kts | 328° |
| 2026-05-04 19:09 | 55.73582 | 12.27251 | 12321 ft | 335 kts | 328° |
| 2026-05-04 19:10 | 55.75635 | 12.25308 | 13096 ft | 338 kts | 327° |
| 2026-05-04 19:10 | 55.77730 | 12.23319 | 13832 ft | 343 kts | 327° |
| 2026-05-04 19:10 | 55.79852 | 12.21299 | 14529 ft | 346 kts | 327° |
| 2026-05-04 19:10 | 55.81980 | 12.19271 | 15253 ft | 348 kts | 327° |
| 2026-05-04 19:11 | 55.84123 | 12.17226 | 15960 ft | 351 kts | 327° |
| 2026-05-04 19:11 | 55.86271 | 12.15111 | 16640 ft | 353 kts | 323° |
| 2026-05-04 19:11 | 55.88164 | 12.12366 | 17302 ft | 351 kts | 310° |
| 2026-05-04 19:11 | 55.89804 | 12.09139 | 17995 ft | 353 kts | 308° |
| 2026-05-04 19:12 | 55.91440 | 12.05861 | 18595 ft | 356 kts | 308° |
| 2026-05-04 19:12 | 55.94767 | 11.99193 | 19743 ft | 362 kts | 308° |
| 2026-05-04 19:12 | 55.96428 | 11.95874 | 20299 ft | 366 kts | 308° |
| 2026-05-04 19:13 | 55.98166 | 11.92409 | 20805 ft | 371 kts | 308° |
| 2026-05-04 19:13 | 55.99891 | 11.88971 | 21364 ft | 374 kts | 308° |
| 2026-05-04 19:13 | 56.01631 | 11.85505 | 21965 ft | 376 kts | 308° |
| 2026-05-04 19:13 | 56.03386 | 11.82005 | 22500 ft | 379 kts | 308° |
| 2026-05-04 19:14 | 56.05154 | 11.78478 | 23007 ft | 383 kts | 308° |
| 2026-05-04 19:14 | 56.06918 | 11.74954 | 23505 ft | 386 kts | 308° |
| 2026-05-04 19:14 | 56.08741 | 11.71308 | 23896 ft | 390 kts | 308° |
| 2026-05-04 19:14 | 56.10546 | 11.67695 | 23939 ft | 389 kts | 308° |
| 2026-05-04 19:15 | 56.12346 | 11.64085 | 23946 ft | 389 kts | 308° |
| 2026-05-04 19:15 | 56.14156 | 11.60449 | 23953 ft | 390 kts | 308° |
| 2026-05-04 19:15 | 56.15963 | 11.56815 | 23967 ft | 392 kts | 308° |
| 2026-05-04 19:15 | 56.17776 | 11.53159 | 24208 ft | 397 kts | 308° |
| 2026-05-04 19:16 | 56.19611 | 11.49456 | 24734 ft | 395 kts | 308° |
| 2026-05-04 19:16 | 56.21446 | 11.45749 | 25247 ft | 396 kts | 308° |
| 2026-05-04 19:16 | 56.23294 | 11.42006 | 25657 ft | 398 kts | 308° |
| 2026-05-04 19:16 | 56.25117 | 11.38307 | 26023 ft | 401 kts | 308° |
| 2026-05-04 19:17 | 56.26969 | 11.34543 | 26406 ft | 404 kts | 308° |
| 2026-05-04 19:17 | 56.28833 | 11.30751 | 26795 ft | 406 kts | 308° |
| 2026-05-04 19:17 | 56.30700 | 11.26945 | 27178 ft | 409 kts | 308° |
| 2026-05-04 19:17 | 56.32591 | 11.23087 | 27568 ft | 411 kts | 308° |
| 2026-05-04 19:18 | 56.34472 | 11.19245 | 28176 ft | 407 kts | 308° |
| 2026-05-04 19:18 | 56.36328 | 11.15451 | 28933 ft | 400 kts | 308° |
| 2026-05-04 19:18 | 56.38159 | 11.11700 | 29458 ft | 399 kts | 307° |
| 2026-05-04 19:18 | 56.39993 | 11.07931 | 29829 ft | 401 kts | 307° |
| 2026-05-04 19:19 | 56.41835 | 11.04137 | 30214 ft | 401 kts | 307° |
| 2026-05-04 19:19 | 56.43671 | 11.00353 | 30668 ft | 399 kts | 307° |
| 2026-05-04 19:19 | 56.45490 | 10.96598 | 31126 ft | 397 kts | 307° |
| 2026-05-04 19:19 | 56.47304 | 10.92846 | 31503 ft | 396 kts | 307° |
| 2026-05-04 19:20 | 56.49118 | 10.89091 | 31843 ft | 397 kts | 307° |
| 2026-05-04 19:20 | 56.50939 | 10.85311 | 31947 ft | 400 kts | 307° |
| 2026-05-04 19:20 | 56.52774 | 10.81499 | 31960 ft | 401 kts | 307° |
| 2026-05-04 19:21 | 56.56414 | 10.73924 | 31947 ft | 395 kts | 307° |
| 2026-05-04 19:21 | 56.60015 | 10.66403 | 31966 ft | 395 kts | 307° |
| 2026-05-04 19:22 | 56.63605 | 10.58879 | 31959 ft | 396 kts | 307° |
| 2026-05-04 19:22 | 56.67218 | 10.51284 | 31990 ft | 397 kts | 307° |
| 2026-05-04 19:23 | 56.70832 | 10.43660 | 31963 ft | 398 kts | 307° |
| 2026-05-04 19:23 | 56.74438 | 10.36031 | 31944 ft | 397 kts | 307° |
| 2026-05-04 19:24 | 56.78030 | 10.28410 | 31947 ft | 395 kts | 307° |
| 2026-05-04 19:24 | 56.81592 | 10.20829 | 31950 ft | 393 kts | 307° |
| 2026-05-04 19:25 | 56.85145 | 10.13241 | 31951 ft | 392 kts | 307° |
| 2026-05-04 19:25 | 56.88676 | 10.05672 | 31953 ft | 391 kts | 307° |
| 2026-05-04 19:26 | 56.92200 | 9.98096 | 31954 ft | 391 kts | 307° |
| 2026-05-04 19:26 | 56.95724 | 9.90496 | 31946 ft | 391 kts | 307° |
| 2026-05-04 19:27 | 56.99250 | 9.82866 | 31936 ft | 392 kts | 306° |
| 2026-05-04 19:27 | 57.02764 | 9.75238 | 31941 ft | 392 kts | 306° |
| 2026-05-04 19:28 | 57.06281 | 9.67583 | 31933 ft | 391 kts | 306° |
| 2026-05-04 19:28 | 57.09783 | 9.59934 | 31936 ft | 389 kts | 306° |
| 2026-05-04 19:29 | 57.13256 | 9.52323 | 31944 ft | 388 kts | 306° |
| 2026-05-04 19:29 | 57.16720 | 9.44704 | 31946 ft | 387 kts | 306° |
| 2026-05-04 19:30 | 57.20169 | 9.37099 | 31939 ft | 386 kts | 306° |
| 2026-05-04 19:30 | 57.23601 | 9.29506 | 31950 ft | 386 kts | 305° |
| 2026-05-04 19:31 | 57.27036 | 9.21879 | 31946 ft | 386 kts | 305° |
| 2026-05-04 19:31 | 57.30449 | 9.14282 | 31938 ft | 386 kts | 305° |
| 2026-05-04 19:32 | 57.33872 | 9.06633 | 31959 ft | 387 kts | 305° |
| 2026-05-04 19:32 | 57.37293 | 8.98966 | 31947 ft | 386 kts | 305° |
| 2026-05-04 19:33 | 57.40715 | 8.91276 | 31934 ft | 386 kts | 304° |
| 2026-05-04 19:33 | 57.44123 | 8.83586 | 31928 ft | 385 kts | 304° |
| 2026-05-04 19:34 | 57.47514 | 8.75912 | 31764 ft | 381 kts | 304° |
| 2026-05-04 19:34 | 57.49179 | 8.72143 | 31495 ft | 373 kts | 304° |
| 2026-05-04 19:34 | 57.50791 | 8.68487 | 31235 ft | 366 kts | 304° |
| 2026-05-04 19:34 | 57.52374 | 8.64889 | 30977 ft | 360 kts | 304° |
| 2026-05-04 19:35 | 57.53943 | 8.61319 | 30721 ft | 353 kts | 304° |
| 2026-05-04 19:35 | 57.55488 | 8.57796 | 30472 ft | 350 kts | 303° |
| 2026-05-04 19:35 | 57.57017 | 8.54298 | 30229 ft | 347 kts | 303° |
| 2026-05-04 19:35 | 57.58532 | 8.50826 | 29982 ft | 345 kts | 303° |
| 2026-05-04 19:36 | 57.60050 | 8.47341 | 29699 ft | 344 kts | 303° |
| 2026-05-04 19:36 | 57.61553 | 8.43887 | 29430 ft | 343 kts | 303° |
| 2026-05-04 19:36 | 57.62545 | 8.41605 | 29237 ft | 342 kts | 303° |
| 2026-05-04 19:36 | 57.64045 | 8.38150 | 28964 ft | 342 kts | 303° |
| 2026-05-04 19:37 | 57.65539 | 8.34703 | 28729 ft | 342 kts | 303° |
| 2026-05-04 19:37 | 57.67033 | 8.31254 | 28451 ft | 341 kts | 303° |
| 2026-05-04 19:37 | 57.68520 | 8.27816 | 28179 ft | 340 kts | 303° |
| 2026-05-04 19:37 | 57.69992 | 8.24409 | 27977 ft | 337 kts | 303° |
| 2026-05-04 19:38 | 57.71462 | 8.21006 | 27932 ft | 336 kts | 303° |
| 2026-05-04 19:38 | 57.72925 | 8.17608 | 27923 ft | 335 kts | 303° |
| 2026-05-04 19:38 | 57.74389 | 8.14204 | 27497 ft | 339 kts | 303° |
| 2026-05-04 19:38 | 57.75856 | 8.10788 | 27169 ft | 334 kts | 303° |
| 2026-05-04 19:39 | 57.77306 | 8.07410 | 26768 ft | 332 kts | 303° |
| 2026-05-04 19:39 | 57.78744 | 8.04055 | 26403 ft | 328 kts | 303° |
| 2026-05-04 19:39 | 57.80165 | 8.00735 | 26052 ft | 325 kts | 303° |
| 2026-05-04 19:39 | 57.81573 | 7.97441 | 25711 ft | 322 kts | 303° |
| 2026-05-04 19:40 | 57.82962 | 7.94185 | 25362 ft | 319 kts | 303° |
| 2026-05-04 19:40 | 57.84342 | 7.90944 | 25028 ft | 316 kts | 302° |
| 2026-05-04 19:40 | 57.85703 | 7.87744 | 24956 ft | 313 kts | 302° |
| 2026-05-04 19:40 | 57.87057 | 7.84560 | 24904 ft | 306 kts | 302° |
| 2026-05-04 19:41 | 57.88360 | 7.81500 | 24885 ft | 294 kts | 302° |
| 2026-05-04 19:41 | 57.89610 | 7.78561 | 24879 ft | 281 kts | 302° |
| 2026-05-04 19:41 | 57.90808 | 7.75737 | 24737 ft | 274 kts | 302° |
| 2026-05-04 19:41 | 57.91986 | 7.72946 | 24444 ft | 272 kts | 302° |
| 2026-05-04 19:42 | 57.93164 | 7.70142 | 23843 ft | 280 kts | 302° |
| 2026-05-04 19:42 | 57.94424 | 7.67120 | 22751 ft | 304 kts | 302° |
| 2026-05-04 19:42 | 57.95737 | 7.63985 | 22225 ft | 306 kts | 303° |
| 2026-05-04 19:42 | 57.97061 | 7.60840 | 21831 ft | 305 kts | 303° |
| 2026-05-04 19:43 | 57.98371 | 7.57731 | 21518 ft | 302 kts | 302° |
| 2026-05-04 19:43 | 57.99670 | 7.54643 | 21166 ft | 299 kts | 302° |
| 2026-05-04 19:43 | 58.00958 | 7.51572 | 20843 ft | 296 kts | 302° |
| 2026-05-04 19:43 | 58.02225 | 7.48550 | 20537 ft | 293 kts | 302° |
| 2026-05-04 19:44 | 58.03482 | 7.45544 | 20213 ft | 291 kts | 302° |
| 2026-05-04 19:44 | 58.04721 | 7.42574 | 19892 ft | 288 kts | 302° |
| 2026-05-04 19:44 | 58.05956 | 7.39613 | 19577 ft | 286 kts | 302° |
| 2026-05-04 19:44 | 58.07177 | 7.36680 | 19302 ft | 283 kts | 302° |
| 2026-05-04 19:45 | 58.08390 | 7.33763 | 18992 ft | 281 kts | 302° |
| 2026-05-04 19:45 | 58.09590 | 7.30876 | 18698 ft | 279 kts | 303° |
| 2026-05-04 19:45 | 58.10783 | 7.28004 | 18397 ft | 276 kts | 302° |
| 2026-05-04 19:45 | 58.11964 | 7.25152 | 18079 ft | 274 kts | 302° |
| 2026-05-04 19:46 | 58.13116 | 7.22367 | 17761 ft | 271 kts | 302° |
| 2026-05-04 19:46 | 58.14285 | 7.19539 | 17478 ft | 268 kts | 302° |
| 2026-05-04 19:46 | 58.15426 | 7.16773 | 17191 ft | 265 kts | 302° |
| 2026-05-04 19:46 | 58.16555 | 7.14033 | 16916 ft | 262 kts | 302° |
| 2026-05-04 19:47 | 58.17676 | 7.11314 | 16603 ft | 261 kts | 302° |
| 2026-05-04 19:47 | 58.18784 | 7.08621 | 16317 ft | 258 kts | 302° |
| 2026-05-04 19:47 | 58.19881 | 7.05953 | 16078 ft | 255 kts | 302° |
| 2026-05-04 19:47 | 58.20966 | 7.03305 | 15794 ft | 255 kts | 302° |
| 2026-05-04 19:48 | 58.22059 | 7.00633 | 15488 ft | 256 kts | 302° |
| 2026-05-04 19:48 | 58.23159 | 6.97942 | 15213 ft | 262 kts | 302° |
| 2026-05-04 19:48 | 58.24286 | 6.95180 | 14932 ft | 268 kts | 302° |
| 2026-05-04 19:48 | 58.25433 | 6.92374 | 14641 ft | 268 kts | 302° |
| 2026-05-04 19:49 | 58.26573 | 6.89588 | 14336 ft | 267 kts | 302° |
| 2026-05-04 19:49 | 58.27705 | 6.86813 | 14039 ft | 265 kts | 303° |
| 2026-05-04 19:49 | 58.28809 | 6.84102 | 13772 ft | 263 kts | 303° |
| 2026-05-04 19:49 | 58.29923 | 6.81365 | 13500 ft | 262 kts | 302° |
| 2026-05-04 19:50 | 58.31049 | 6.78593 | 13171 ft | 258 kts | 303° |
| 2026-05-04 19:50 | 58.32136 | 6.75909 | 12880 ft | 255 kts | 302° |
| 2026-05-04 19:50 | 58.33193 | 6.73299 | 12635 ft | 251 kts | 302° |
| 2026-05-04 19:50 | 58.34262 | 6.70659 | 12318 ft | 249 kts | 302° |
| 2026-05-04 19:51 | 58.35306 | 6.68086 | 12080 ft | 244 kts | 302° |
| 2026-05-04 19:51 | 58.36340 | 6.65535 | 11793 ft | 242 kts | 302° |
| 2026-05-04 19:51 | 58.37356 | 6.63011 | 11573 ft | 239 kts | 302° |
| 2026-05-04 19:51 | 58.38370 | 6.60491 | 11261 ft | 239 kts | 302° |
| 2026-05-04 19:52 | 58.39374 | 6.57997 | 10993 ft | 235 kts | 302° |
| 2026-05-04 19:52 | 58.40362 | 6.55544 | 10737 ft | 232 kts | 302° |
| 2026-05-04 19:52 | 58.41341 | 6.53099 | 10468 ft | 231 kts | 302° |
| 2026-05-04 19:52 | 58.42286 | 6.50669 | 10286 ft | 228 kts | 301° |
| 2026-05-04 19:53 | 58.43222 | 6.48195 | 10091 ft | 229 kts | 301° |
| 2026-05-04 19:53 | 58.44152 | 6.45721 | 10002 ft | 232 kts | 301° |
| 2026-05-04 19:53 | 58.45103 | 6.43180 | 9797 ft | 239 kts | 301° |
| 2026-05-04 19:53 | 58.46072 | 6.40607 | 9526 ft | 237 kts | 301° |
| 2026-05-04 19:54 | 58.47029 | 6.38065 | 9241 ft | 235 kts | 301° |
| 2026-05-04 19:54 | 58.47982 | 6.35539 | 8995 ft | 233 kts | 301° |
| 2026-05-04 19:54 | 58.48923 | 6.33037 | 8763 ft | 229 kts | 302° |
| 2026-05-04 19:54 | 58.49849 | 6.30572 | 8463 ft | 228 kts | 302° |
| 2026-05-04 19:55 | 58.50762 | 6.28127 | 8224 ft | 225 kts | 302° |
| 2026-05-04 19:55 | 58.51666 | 6.25696 | 7981 ft | 222 kts | 302° |
| 2026-05-04 19:55 | 58.52566 | 6.23303 | 7713 ft | 221 kts | 302° |
| 2026-05-04 19:55 | 58.53453 | 6.20931 | 7485 ft | 217 kts | 303° |
| 2026-05-04 19:56 | 58.54331 | 6.18597 | 7257 ft | 215 kts | 303° |
| 2026-05-04 19:56 | 58.55190 | 6.16292 | 7016 ft | 213 kts | 302° |
| 2026-05-04 19:56 | 58.56029 | 6.13953 | 6841 ft | 215 kts | 303° |
| 2026-05-04 19:56 | 58.56913 | 6.11584 | 6594 ft | 224 kts | 303° |
| 2026-05-04 19:57 | 58.57835 | 6.09115 | 6328 ft | 230 kts | 304° |
| 2026-05-04 19:57 | 58.58767 | 6.06622 | 6029 ft | 229 kts | 304° |
| 2026-05-04 19:57 | 58.59692 | 6.04139 | 5763 ft | 228 kts | 304° |
| 2026-05-04 19:57 | 58.60610 | 6.01665 | 5531 ft | 226 kts | 304° |
| 2026-05-04 19:58 | 58.61518 | 5.99227 | 5249 ft | 223 kts | 304° |
| 2026-05-04 19:58 | 58.62405 | 5.96839 | 5032 ft | 221 kts | 304° |
| 2026-05-04 19:58 | 58.63289 | 5.94447 | 4801 ft | 220 kts | 304° |
| 2026-05-04 19:58 | 58.64172 | 5.92055 | 4519 ft | 219 kts | 304° |
| 2026-05-04 19:59 | 58.65053 | 5.89665 | 4269 ft | 219 kts | 305° |
| 2026-05-04 19:59 | 58.65920 | 5.87296 | 4036 ft | 213 kts | 305° |
| 2026-05-04 19:59 | 58.66778 | 5.84982 | 3802 ft | 213 kts | 306° |
| 2026-05-04 19:59 | 58.67626 | 5.82683 | 3707 ft | 208 kts | 306° |
| 2026-05-04 20:00 | 58.68443 | 5.80453 | 3623 ft | 198 kts | 306° |
| 2026-05-04 20:00 | 58.69202 | 5.78376 | 3541 ft | 183 kts | 307° |
| 2026-05-04 20:00 | 58.69905 | 5.76461 | 3454 ft | 169 kts | 307° |
| 2026-05-04 20:00 | 58.70547 | 5.74715 | 3354 ft | 156 kts | 308° |
| 2026-05-04 20:01 | 58.71307 | 5.73275 | 3223 ft | 150 kts | 323° |
| 2026-05-04 20:01 | 58.72105 | 5.72012 | 3049 ft | 153 kts | 320° |
| 2026-05-04 20:01 | 58.72928 | 5.70660 | 2873 ft | 153 kts | 321° |
| 2026-05-04 20:01 | 58.73731 | 5.69348 | 2680 ft | 154 kts | 322° |
| 2026-05-04 20:02 | 58.74550 | 5.68059 | 2530 ft | 151 kts | 327° |
| 2026-05-04 20:02 | 58.75442 | 5.67024 | 2387 ft | 149 kts | 335° |
| 2026-05-04 20:02 | 58.76386 | 5.66200 | 2326 ft | 149 kts | 338° |
| 2026-05-04 20:02 | 58.77360 | 5.65408 | 2176 ft | 156 kts | 340° |
| 2026-05-04 20:03 | 58.78388 | 5.64748 | 2028 ft | 147 kts | 345° |
| 2026-05-04 20:03 | 58.79312 | 5.64276 | 1851 ft | 128 kts | 347° |
| 2026-05-04 20:03 | 58.80154 | 5.64065 | 1702 ft | 120 kts | 356° |
| 2026-05-04 20:03 | 58.80975 | 5.63999 | 1475 ft | 118 kts | 355° |
| 2026-05-04 20:04 | 58.81815 | 5.63975 | 1229 ft | 121 kts | 358° |
| 2026-05-04 20:04 | 58.82646 | 5.63943 | 1033 ft | 118 kts | 358° |
| 2026-05-04 20:04 | 58.83475 | 5.63910 | 877 ft | 120 kts | 355° |
| 2026-05-04 20:04 | 58.84320 | 5.63885 | 690 ft | 124 kts | 357° |
| 2026-05-04 20:05 | 58.85196 | 5.63846 | 460 ft | 127 kts | 356° |
| 2026-05-04 20:05 | 58.86071 | 5.63835 | 269 ft | 124 kts | 356° |
| 2026-05-04 20:05 | 58.86924 | 5.63807 | 107 ft | 122 kts | 357° |
| 2026-05-04 20:05 | 58.87714 | 5.63789 | 33 ft | 103 kts | 356° |
| 2026-05-04 20:06 | 58.88316 | 5.63762 | 30 ft | 69 kts | 359° |
| 2026-05-04 20:06 | 58.88557 | 5.63760 | 28 ft | 24 kts | 359° |
| 2026-05-04 20:06 | 58.88679 | 5.63743 | 27 ft | 15 kts | 334° |
| 2026-05-04 20:06 | 58.88708 | 5.63573 | 29 ft | 14 kts | 265° |
| 2026-05-04 20:07 | 58.88707 | 5.63520 | 31 ft | 0 kts | 267° |
| 2026-05-04 20:07 | 58.88706 | 5.63500 | 31 ft | 5 kts | 264° |
| 2026-05-04 20:07 | 58.88669 | 5.63423 | 30 ft | 10 kts | 188° |
| 2026-05-04 20:08 | 58.88592 | 5.63421 | 30 ft | 11 kts | 178° |
| 2026-05-04 20:08 | 58.88513 | 5.63425 | 30 ft | 11 kts | 179° |
| 2026-05-04 20:08 | 58.88449 | 5.63357 | 28 ft | 12 kts | 243° |
| 2026-05-04 20:08 | 58.88425 | 5.63209 | 27 ft | 12 kts | 257° |
| 2026-05-04 20:09 | 58.88390 | 5.63075 | 28 ft | 9 kts | 225° |
| 2026-05-04 20:09 | 58.88363 | 5.63021 | 27 ft | 3 kts | 224° |
| 2026-05-04 20:09 | 58.88358 | 5.63013 | 24 ft | 0 kts | 221° |
| 2026-05-04 20:09 | 58.88357 | 5.63011 | 24 ft | 0 kts | 221° |
| 2026-05-04 20:10 | 58.88356 | 5.63010 | 24 ft | 0 kts | 221° |